Time;durP1;ratioP1;P1;durP2;ratioP2;P2;SDS_P1;SDS_P2;PMS_P1;PMS_P2;Temp;Humidity;BMP_temperature;BMP_pressure;BME280_temperature;BME280_humidity;BME280_pressure;Samples;Min_cycle;Max_cycle;Signal;HPM_P1;HPM_P2
2023/06/18 00:02:13;;;;;;;8.13;7.30;;;15.50;61.90;;;14.99;58.49;97728.09;5024495;28;20465;-75
2023/06/18 00:04:40;;;;;;;7.90;7.10;;;15.40;62.20;;;14.97;58.85;97731.06;5028107;28;20480;-73
2023/06/18 00:07:07;;;;;;;9.17;8.23;;;15.30;62.10;;;14.83;59.25;97741.47;5017928;28;20872;-76
2023/06/18 00:09:34;;;;;;;10.50;8.67;;;15.20;62.60;;;14.72;60.01;97737.78;5035640;28;20465;-75
2023/06/18 00:12:01;;;;;;;8.83;7.97;;;15.10;63.10;;;14.65;60.16;97748.00;5026490;28;20461;-75
2023/06/18 00:14:29;;;;;;;8.30;7.50;;;15.00;63.60;;;14.51;60.57;97742.06;5026274;28;20469;-75
2023/06/18 00:16:56;;;;;;;8.97;7.50;;;14.90;64.10;;;14.47;60.99;97743.63;5011604;28;20478;-77
2023/06/18 00:19:24;;;;;;;8.50;7.70;;;14.70;65.10;;;14.33;61.57;97745.03;5034451;28;20465;-74
2023/06/18 00:21:52;;;;;;;9.33;8.13;;;14.60;66.00;;;14.33;61.19;97745.88;5031707;28;20457;-77
2023/06/18 00:24:21;;;;;;;9.17;8.30;;;14.60;66.30;;;14.22;61.29;97733.97;5025873;28;20962;-75
2023/06/18 00:26:48;;;;;;;10.33;8.63;;;14.70;66.50;;;14.22;61.89;97733.16;5039584;28;20467;-73
2023/06/18 00:29:15;;;;;;;8.87;7.67;;;14.60;67.10;;;14.27;61.56;97730.53;5030557;28;20480;-74
2023/06/18 00:31:43;;;;;;;8.27;7.40;;;14.60;67.50;;;14.33;61.71;97739.59;5027647;28;20951;-74
2023/06/18 00:34:12;;;;;;;9.60;7.03;;;14.60;67.90;;;14.33;61.67;97750.47;5010135;28;21049;-75
2023/06/18 00:36:43;;;;;;;8.37;7.33;;;14.70;67.80;;;14.23;61.91;97738.34;5026825;28;20472;-73
2023/06/18 00:39:11;;;;;;;9.67;8.27;;;14.60;67.90;;;14.30;61.56;97749.06;5028764;28;20550;-76
2023/06/18 00:41:38;;;;;;;10.00;8.70;;;14.60;68.20;;;14.23;61.68;97734.81;5026846;28;20445;-75
2023/06/18 00:44:08;;;;;;;7.77;6.97;;;14.60;68.10;;;14.41;61.07;97736.47;5009549;28;20468;-73
2023/06/18 00:46:36;;;;;;;8.57;7.70;;;14.60;67.90;;;14.34;60.81;97739.34;5028213;28;20465;-72
2023/06/18 00:49:04;;;;;;;9.07;8.27;;;14.60;67.50;;;14.34;60.61;97717.63;5023256;28;20460;-78
2023/06/18 00:51:34;;;;;;;8.97;7.50;;;14.70;67.60;;;14.29;59.71;97717.50;5027107;28;20469;-78
2023/06/18 00:54:03;;;;;;;9.00;7.70;;;14.80;66.30;;;14.52;59.29;97737.47;5007970;28;20565;-75
2023/06/18 00:56:37;;;;;;;8.97;8.07;;;14.80;66.00;;;14.53;58.90;97744.53;5027099;28;20475;-75
2023/06/18 00:59:04;;;;;;;8.20;6.80;;;14.90;65.70;;;14.56;58.89;97739.44;5026491;28;20473;-74
2023/06/18 01:01:32;;;;;;;8.77;7.87;;;14.90;65.20;;;14.55;58.45;97743.19;5037145;28;20460;-73
2023/06/18 01:04:00;;;;;;;8.30;7.50;;;15.00;65.00;;;14.66;58.71;97746.06;5014646;28;21006;-74
2023/06/18 01:06:27;;;;;;;12.40;8.30;;;15.00;65.00;;;14.66;57.95;97733.31;5019460;28;20550;-76
2023/06/18 01:08:55;;;;;;;10.90;8.53;;;15.00;64.80;;;14.34;58.14;97681.44;5017369;28;20456;-75
2023/06/18 01:11:25;;;;;;;9.97;8.20;;;15.00;64.40;;;14.68;57.61;97742.06;5013029;28;21009;-74
2023/06/18 01:13:54;;;;;;;7.97;7.20;;;15.10;63.90;;;14.63;57.61;97733.78;5021041;28;20504;-76
2023/06/18 01:16:23;;;;;;;7.83;7.13;;;15.00;63.40;;;14.68;57.25;97735.78;5022405;28;20548;-77
2023/06/18 01:18:52;;;;;;;9.13;7.80;;;15.00;63.50;;;14.67;57.27;97731.41;5028038;28;20465;-78
2023/06/18 01:21:24;;;;;;;9.10;8.20;;;15.00;63.80;;;14.59;57.52;97741.66;5010638;28;20795;-75
2023/06/18 01:24:02;;;;;;;9.33;8.37;;;14.90;63.60;;;14.64;57.85;97740.91;5013419;28;20452;-73
2023/06/18 01:26:32;;;;;;;8.47;7.50;;;14.90;63.80;;;14.62;57.95;97732.16;5017451;28;20495;-76
2023/06/18 01:29:00;;;;;;;9.37;8.37;;;14.90;64.10;;;14.66;58.12;97743.38;5030978;28;20461;-75
2023/06/18 01:31:36;;;;;;;10.23;8.20;;;14.90;64.10;;;14.59;57.89;97738.09;5011807;28;20489;-75
2023/06/18 01:34:05;;;;;;;8.37;7.53;;;14.90;64.30;;;14.55;58.35;97726.88;5014967;28;20473;-74
2023/06/18 01:36:59;;;;;;;8.50;7.80;;;14.90;64.30;;;14.40;59.13;97721.22;5030864;28;20458;-74
2023/06/18 01:39:36;;;;;;;9.40;8.50;;;14.80;64.90;;;14.38;59.25;97726.91;5030101;28;20483;-77
2023/06/18 01:42:16;;;;;;;7.90;7.10;;;14.70;65.10;;;14.25;59.85;97738.09;5021683;28;20457;-75
2023/06/18 01:44:47;;;;;;;8.97;8.10;;;14.50;65.70;;;13.78;60.54;97674.84;5033881;28;20528;-74
2023/06/18 01:47:16;;;;;;;9.70;7.57;;;14.30;66.60;;;14.27;59.88;97727.81;5031311;28;20493;-76
2023/06/18 01:49:45;;;;;;;8.77;7.87;;;14.40;66.60;;;14.23;59.96;97710.38;5013112;28;20453;-76
2023/06/18 01:52:18;;;;;;;10.53;8.13;;;14.50;66.40;;;14.19;60.21;97726.31;5030465;28;20472;-75
2023/06/18 01:54:48;;;;;;;9.80;7.70;;;14.50;66.50;;;14.06;60.63;97732.91;5019299;28;20509;-76
2023/06/18 01:57:17;;;;;;;9.70;8.60;;;14.40;66.60;;;13.94;60.85;97730.25;5013025;28;20563;-77
2023/06/18 01:59:44;;;;;;;9.03;8.00;;;14.30;66.70;;;13.85;60.95;97729.81;5013392;28;20471;-75
2023/06/18 02:02:12;;;;;;;9.20;7.93;;;14.20;67.00;;;13.74;61.08;97728.81;5013743;28;20465;-76
2023/06/18 02:04:43;;;;;;;8.77;7.33;;;14.20;66.90;;;13.75;61.02;97740.50;5017956;28;21211;-75
2023/06/18 02:07:10;;;;;;;10.27;8.20;;;14.20;67.20;;;13.70;61.86;97738.50;5013977;28;20503;-76
2023/06/18 02:09:38;;;;;;;7.73;6.87;;;14.10;67.60;;;13.65;62.17;97732.16;5017974;28;20833;-74
2023/06/18 02:12:07;;;;;;;10.03;9.00;;;14.00;68.00;;;13.69;62.02;97731.44;5007927;28;20468;-73
2023/06/18 02:14:35;;;;;;;10.57;7.90;;;14.00;68.30;;;13.71;62.40;97737.44;5032707;28;20492;-74
2023/06/18 02:17:03;;;;;;;7.73;6.93;;;14.00;68.90;;;13.58;62.98;97730.44;5032205;28;20484;-76
2023/06/18 02:19:30;;;;;;;9.17;8.27;;;14.00;69.30;;;13.64;62.69;97739.47;5031087;28;20854;-74
2023/06/18 02:21:58;;;;;;;8.37;7.07;;;14.00;69.40;;;13.54;62.94;97739.28;5009494;28;21180;-75
2023/06/18 02:24:25;;;;;;;10.07;8.80;;;13.90;69.60;;;13.49;63.33;97742.72;5012677;28;20461;-73
2023/06/18 02:26:52;;;;;;;9.50;8.50;;;13.90;70.00;;;13.28;63.83;97750.44;5017102;28;20458;-74
2023/06/18 02:29:20;;;;;;;11.87;8.53;;;13.80;70.30;;;13.23;64.11;97753.00;5011973;28;20458;-73
2023/06/18 02:31:48;;;;;;;9.27;8.07;;;13.70;70.70;;;13.14;64.78;97741.72;5028553;28;20531;-76
2023/06/18 02:34:18;;;;;;;9.17;8.27;;;13.60;71.50;;;13.07;64.81;97729.34;5033188;28;20488;-75
2023/06/18 02:36:47;;;;;;;9.43;8.37;;;13.50;72.30;;;13.07;65.45;97740.19;5013041;28;20830;-74
2023/06/18 02:39:16;;;;;;;9.90;8.90;;;13.50;72.70;;;12.99;65.75;97739.50;5030689;28;20461;-72
2023/06/18 02:41:44;;;;;;;8.67;7.87;;;13.40;73.30;;;12.95;66.30;97732.88;5033385;28;20496;-74
2023/06/18 02:44:12;;;;;;;9.50;7.47;;;13.30;74.10;;;13.03;65.74;97735.25;5030097;28;20549;-74
2023/06/18 02:46:39;;;;;;;9.07;7.67;;;13.40;74.20;;;12.91;66.66;97742.56;5012410;28;20471;-76
2023/06/18 02:49:08;;;;;;;13.20;9.03;;;13.30;74.40;;;12.78;66.95;97742.81;5020351;28;20453;-73
2023/06/18 02:51:35;;;;;;;9.47;7.53;;;13.20;74.90;;;12.70;67.11;97723.16;5028479;28;20504;-74
2023/06/18 02:54:02;;;;;;;9.60;7.90;;;13.10;75.20;;;12.77;67.26;97741.16;5030262;28;20475;-78
2023/06/18 02:56:29;;;;;;;8.43;7.40;;;13.10;75.60;;;12.58;67.97;97728.56;5011321;28;20591;-75
2023/06/18 02:58:57;;;;;;;9.97;8.27;;;13.00;76.00;;;12.63;67.84;97746.00;5029659;28;20472;-74
2023/06/18 03:01:24;;;;;;;8.50;7.60;;;13.00;76.60;;;12.64;67.93;97748.47;5009785;28;21338;-73
2023/06/18 03:03:53;;;;;;;10.13;8.50;;;13.00;76.60;;;12.64;68.14;97751.19;5010781;28;20454;-75
2023/06/18 03:06:23;;;;;;;8.20;7.40;;;13.00;76.70;;;12.60;67.66;97744.59;5017051;28;20458;-75
2023/06/18 03:08:50;;;;;;;8.20;7.40;;;13.00;76.70;;;12.67;67.73;97734.47;5029416;28;20463;-75
2023/06/18 03:11:17;;;;;;;8.40;7.43;;;13.00;76.70;;;12.68;67.24;97760.50;5036150;28;20456;-76
2023/06/18 03:13:45;;;;;;;8.40;7.33;;;13.10;76.40;;;12.73;67.20;97762.50;5030482;28;20482;-75
2023/06/18 03:16:12;;;;;;;8.40;7.60;;;13.00;76.60;;;12.74;67.45;97756.84;5013862;28;20459;-79
2023/06/18 03:18:39;;;;;;;9.57;7.17;;;13.00;76.80;;;12.75;67.00;97755.78;5025951;28;20876;-75
2023/06/18 03:21:06;;;;;;;7.70;7.00;;;13.10;76.50;;;12.73;67.00;97759.78;5015346;28;20446;-78
2023/06/18 03:23:36;;;;;;;9.10;8.03;;;13.10;76.20;;;12.67;67.09;97764.28;5030672;28;20458;-73
2023/06/18 03:26:03;;;;;;;9.57;7.83;;;13.10;76.20;;;12.57;67.47;97755.91;5017102;28;20524;-81
2023/06/18 03:28:30;;;;;;;10.87;9.17;;;13.00;76.40;;;12.58;67.48;97754.84;5030202;28;20459;-76
2023/06/18 03:30:58;;;;;;;9.30;7.70;;;13.00;76.90;;;12.18;67.64;97686.72;5027767;28;20462;-75
2023/06/18 03:33:29;;;;;;;8.47;7.47;;;13.00;77.10;;;12.56;67.92;97762.38;5007841;28;20464;-76
2023/06/18 03:35:59;;;;;;;10.20;8.43;;;13.00;77.00;;;12.45;67.67;97735.03;5016901;28;21044;-75
2023/06/18 03:38:28;;;;;;;8.93;8.13;;;13.00;77.10;;;12.52;67.99;97751.19;5011083;28;20459;-74
2023/06/18 03:40:56;;;;;;;8.43;7.60;;;13.00;77.20;;;12.53;67.99;97755.53;5009350;28;20503;-75
2023/06/18 03:43:24;;;;;;;8.13;7.27;;;13.00;77.20;;;12.59;67.54;97740.22;5011123;28;20881;-74
2023/06/18 03:45:51;;;;;;;8.80;7.40;;;13.00;77.10;;;12.69;67.78;97740.47;5029243;28;20458;-77
2023/06/18 03:48:18;;;;;;;10.20;7.70;;;13.00;77.40;;;12.58;68.05;97719.63;5010892;28;20445;-76
2023/06/18 03:50:46;;;;;;;8.40;7.57;;;13.10;77.30;;;12.70;67.61;97744.84;5028242;28;20468;-76
2023/06/18 03:53:13;;;;;;;12.00;8.07;;;13.20;77.10;;;12.75;68.21;97750.34;5024767;28;20472;-78
2023/06/18 03:55:41;;;;;;;9.80;8.00;;;13.20;77.40;;;12.23;67.74;97680.59;5028847;28;20480;-77
2023/06/18 03:58:10;;;;;;;8.40;7.47;;;13.20;77.30;;;12.87;67.15;97744.13;5010150;28;20464;-76
2023/06/18 04:00:37;;;;;;;10.10;8.30;;;13.30;77.10;;;12.89;67.33;97736.56;5028579;28;20546;-77
2023/06/18 04:03:05;;;;;;;9.30;8.00;;;13.30;76.70;;;13.04;66.04;97734.19;5028356;28;20472;-75
2023/06/18 04:05:33;;;;;;;8.80;7.80;;;13.40;76.50;;;13.52;65.03;97747.66;5028237;28;20452;-75
2023/06/18 04:08:00;;;;;;;9.17;8.17;;;13.80;75.90;;;14.03;62.94;97742.38;5032729;28;20463;-75
2023/06/18 04:10:27;;;;;;;7.83;6.80;;;14.50;74.50;;;14.40;61.12;97743.78;5011061;28;20453;-75
2023/06/18 04:12:54;;;;;;;9.50;8.20;;;14.90;72.80;;;14.95;60.03;97757.72;5010473;28;20451;-76
2023/06/18 04:15:22;;;;;;;10.73;8.30;;;15.40;72.20;;;15.47;58.11;97757.53;5011291;28;21074;-78
2023/06/18 04:17:51;;;;;;;9.87;8.70;;;16.00;70.40;;;15.68;57.20;97753.16;5027128;28;20462;-73
2023/06/18 04:20:18;;;;;;;9.07;8.20;;;16.50;67.80;;;15.52;57.08;97744.81;5035125;28;21021;-75
2023/06/18 04:22:45;;;;;;;8.80;7.90;;;16.50;66.90;;;15.62;56.52;97759.63;5011186;28;20560;-74
2023/06/18 04:25:13;;;;;;;9.23;8.33;;;16.60;66.00;;;15.37;57.60;97764.50;5011071;28;20950;-73
2023/06/18 04:27:40;;;;;;;7.77;6.90;;;16.40;65.80;;;15.42;56.79;97770.00;5014959;28;20445;-75
2023/06/18 04:30:09;;;;;;;9.43;8.53;;;16.40;65.50;;;15.95;55.72;97763.28;5012722;28;20471;-78
2023/06/18 04:32:38;;;;;;;8.43;7.30;;;16.70;65.30;;;16.10;55.38;97776.25;5024215;28;20546;-75
2023/06/18 04:35:06;;;;;;;9.47;7.37;;;16.80;64.60;;;15.88;54.78;97699.97;5025249;28;20493;-79
2023/06/18 04:37:34;;;;;;;8.93;8.03;;;17.20;63.80;;;16.34;54.67;97779.47;5022778;28;20473;-78
2023/06/18 04:40:02;;;;;;;9.43;7.37;;;17.20;63.20;;;15.90;54.20;97670.59;5028515;28;20933;-76
2023/06/18 04:42:30;;;;;;;8.97;7.70;;;17.30;62.90;;;16.54;53.63;97757.00;5028261;28;20473;-76
2023/06/18 04:44:57;;;;;;;9.47;8.20;;;17.40;62.60;;;16.41;53.94;97765.63;5027521;28;20828;-73
2023/06/18 04:47:25;;;;;;;7.97;7.27;;;17.50;62.10;;;16.77;53.36;97767.81;5026894;28;20469;-76
2023/06/18 04:49:53;;;;;;;8.47;7.07;;;17.60;62.00;;;17.41;52.19;97774.19;5028613;28;20590;-77
2023/06/18 04:52:21;;;;;;;10.30;7.90;;;18.00;61.50;;;17.85;50.77;97772.97;5001095;28;20903;-75
2023/06/18 04:54:48;;;;;;;9.10;8.10;;;18.30;60.50;;;18.44;49.04;97764.66;5027436;28;20478;-75
2023/06/18 04:57:17;;;;;;;8.30;7.57;;;18.80;59.30;;;18.63;47.93;97763.00;5027709;28;20545;-75
2023/06/18 04:59:44;;;;;;;8.67;7.87;;;19.30;57.90;;;18.05;49.15;97764.03;5011082;28;20450;-75
2023/06/18 05:02:11;;;;;;;8.83;7.93;;;19.20;57.10;;;17.68;49.79;97782.22;5008327;28;20465;-75
2023/06/18 05:04:40;;;;;;;8.10;7.37;;;18.90;57.20;;;17.97;49.75;97776.31;5010843;28;20458;-76
2023/06/18 05:07:08;;;;;;;8.73;7.83;;;18.80;57.50;;;17.89;49.98;97795.13;5014277;28;20451;-77
2023/06/18 05:09:36;;;;;;;8.23;7.43;;;18.80;57.60;;;18.59;48.38;97777.50;5025323;28;20460;-76
2023/06/18 05:12:03;;;;;;;8.87;7.23;;;19.10;57.10;;;19.42;46.11;97767.22;5015636;28;20439;-79
2023/06/18 05:14:30;;;;;;;8.57;7.50;;;19.60;56.30;;;19.79;44.63;97781.59;5028650;28;20469;-74
2023/06/18 05:16:58;;;;;;;8.70;7.77;;;20.00;55.00;;;19.84;44.79;97795.28;5023426;28;20535;-76
2023/06/18 05:19:25;;;;;;;7.50;6.90;;;20.10;54.60;;;19.85;44.84;97799.66;5040255;28;20940;-75
2023/06/18 05:21:52;;;;;;;8.63;7.13;;;20.60;54.40;;;19.05;45.48;97728.19;5031250;28;20446;-75
2023/06/18 05:24:20;;;;;;;8.50;7.70;;;20.50;53.80;;;19.45;46.04;97801.47;4997653;28;20543;-75
2023/06/18 05:26:48;;;;;;;9.20;8.30;;;20.20;54.20;;;19.33;45.82;97807.25;5023404;28;20446;-75
2023/06/18 05:29:18;;;;;;;9.60;8.60;;;20.10;54.00;;;19.29;45.89;97800.69;5003717;28;20503;-79
2023/06/18 05:31:47;;;;;;;8.37;7.53;;;20.30;53.70;;;19.30;46.35;97791.38;5026358;28;20454;-74
2023/06/18 05:34:14;;;;;;;7.87;7.17;;;20.50;54.00;;;18.89;47.68;97793.06;5011023;28;20493;-76
2023/06/18 05:36:41;;;;;;;8.77;7.87;;;20.10;54.00;;;19.04;47.04;97799.66;5025460;28;20485;-78
2023/06/18 05:39:09;;;;;;;8.17;7.30;;;20.00;54.00;;;19.91;45.13;97797.69;5031645;28;20544;-75
2023/06/18 05:41:37;;;;;;;11.23;8.43;;;20.40;53.90;;;20.17;44.90;97800.34;5025888;28;20527;-75
2023/06/18 05:44:05;;;;;;;8.87;7.97;;;21.10;53.50;;;19.91;44.63;97805.94;5009640;28;20555;-76
2023/06/18 05:46:32;;;;;;;9.40;8.60;;;21.20;52.50;;;19.62;46.13;97809.34;5028429;28;21307;-77
2023/06/18 05:48:59;;;;;;;9.27;8.27;;;20.80;53.20;;;20.27;44.54;97810.41;5012951;28;20442;-77
2023/06/18 05:51:27;;;;;;;8.80;7.13;;;21.00;53.00;;;20.87;42.72;97769.09;5009475;28;20541;-76
2023/06/18 05:53:57;;;;;;;9.17;8.30;;;21.40;52.40;;;20.72;43.19;97808.44;5020076;28;20534;-80
2023/06/18 05:56:25;;;;;;;10.73;9.67;;;21.80;52.00;;;20.37;44.07;97797.44;5013471;28;20490;-77
2023/06/18 05:58:53;;;;;;;8.50;7.60;;;21.60;51.90;;;20.87;43.45;97810.28;5032303;28;20459;-78
2023/06/18 06:01:21;;;;;;;9.33;8.33;;;21.80;52.00;;;20.49;43.90;97799.84;5023418;28;20565;-78
2023/06/18 06:03:48;;;;;;;9.90;8.07;;;21.80;51.60;;;20.75;43.51;97807.06;5031391;28;20467;-76
2023/06/18 06:06:15;;;;;;;10.17;9.10;;;21.80;51.50;;;21.16;42.07;97812.22;5011937;28;20462;-76
2023/06/18 06:08:43;;;;;;;9.83;8.90;;;22.00;50.90;;;21.77;41.33;97804.41;5039886;28;20465;-77
2023/06/18 06:11:10;;;;;;;9.93;8.93;;;22.20;51.00;;;22.01;40.29;97809.03;5038934;28;20470;-74
2023/06/18 06:13:37;;;;;;;9.37;8.47;;;22.80;50.30;;;22.60;39.55;97814.25;5032094;28;20509;-74
2023/06/18 06:16:06;;;;;;;9.87;8.50;;;22.90;50.60;;;23.19;38.06;97808.31;5029776;28;20564;-77
2023/06/18 06:18:33;;;;;;;9.00;8.10;;;23.50;49.70;;;24.15;36.56;97810.56;5019797;28;20446;-79
2023/06/18 06:21:01;;;;;;;9.07;8.17;;;24.20;49.50;;;24.43;35.97;97812.44;5027383;28;20444;-74
2023/06/18 06:23:28;;;;;;;10.40;8.90;;;24.80;48.50;;;24.55;35.64;97812.69;5031738;28;20466;-79
2023/06/18 06:25:55;;;;;;;9.27;8.37;;;25.30;48.10;;;23.69;37.02;97808.78;5018449;28;20453;-76
2023/06/18 06:28:22;;;;;;;9.03;8.23;;;24.70;48.00;;;23.19;37.69;97791.78;5030419;28;20465;-79
2023/06/18 06:30:50;;;;;;;9.23;8.17;;;24.40;47.90;;;22.29;39.83;97805.63;5027927;28;20481;-83
2023/06/18 06:33:19;;;;;;;9.10;8.20;;;23.70;48.20;;;22.32;40.44;97811.34;5023902;28;20458;-80
2023/06/18 06:35:47;;;;;;;9.40;8.50;;;23.10;49.10;;;21.53;41.58;97812.63;5007986;28;20484;-79
2023/06/18 06:38:14;;;;;;;9.40;8.60;;;22.30;49.40;;;21.08;42.44;97810.09;5007342;28;20466;-81
2023/06/18 06:40:42;;;;;;;9.67;8.33;;;21.70;49.90;;;21.15;42.87;97820.72;5024563;28;20452;-79
2023/06/18 06:43:09;;;;;;;9.77;8.50;;;21.50;50.70;;;20.75;43.43;97801.56;5022553;28;20458;-75
2023/06/18 06:45:36;;;;;;;8.80;8.00;;;21.20;50.50;;;20.70;43.23;97802.44;5022559;28;20467;-79
2023/06/18 06:48:04;;;;;;;9.27;8.27;;;21.20;50.70;;;20.86;43.37;97803.16;5022091;28;20463;-74
2023/06/18 06:50:33;;;;;;;9.00;8.20;;;21.00;50.90;;;20.93;43.58;97808.31;5002105;28;20473;-75
2023/06/18 06:53:00;;;;;;;8.33;7.60;;;21.20;51.40;;;20.95;43.70;97806.09;5020348;28;20470;-81
2023/06/18 06:55:27;;;;;;;9.40;8.53;;;21.10;51.30;;;21.01;43.57;97804.94;5022695;28;20483;-78
2023/06/18 06:57:54;;;;;;;8.47;7.67;;;21.30;51.20;;;21.28;43.03;97803.56;5005174;28;20462;-80
2023/06/18 07:00:22;;;;;;;9.33;8.43;;;21.40;51.40;;;21.26;42.50;97793.97;5021582;28;20557;-80
2023/06/18 07:02:49;;;;;;;9.10;8.20;;;21.40;51.00;;;21.20;43.37;97801.44;5007611;28;20811;-77
2023/06/18 07:05:16;;;;;;;9.30;8.40;;;21.50;51.40;;;21.13;43.23;97807.28;5002873;28;20461;-80
2023/06/18 07:07:45;;;;;;;9.47;8.53;;;21.50;51.20;;;21.31;42.54;97805.72;5018941;28;20461;-77
2023/06/18 07:10:12;;;;;;;9.77;8.77;;;21.60;51.00;;;21.62;43.06;97802.63;5024632;28;20917;-78
2023/06/18 07:12:39;;;;;;;8.20;7.50;;;21.70;51.50;;;21.48;42.63;97801.69;5022118;28;20451;-74
2023/06/18 07:15:09;;;;;;;12.37;8.30;;;21.70;51.20;;;21.69;42.65;97799.56;5040383;28;20489;-75
2023/06/18 07:17:36;;;;;;;9.47;8.33;;;21.80;51.30;;;22.07;41.36;97791.38;5030960;28;20486;-77
2023/06/18 07:20:04;;;;;;;10.70;7.90;;;22.20;50.90;;;22.28;41.22;97785.56;5027786;28;20977;-75
2023/06/18 07:22:31;;;;;;;9.60;8.13;;;22.50;50.90;;;22.13;40.67;97788.53;5014428;28;20454;-77
2023/06/18 07:24:59;;;;;;;9.70;8.77;;;22.50;50.20;;;21.96;41.28;97794.53;5008343;28;20451;-77
2023/06/18 07:27:27;;;;;;;9.27;7.90;;;22.40;50.10;;;21.89;40.12;97728.91;5030848;28;20466;-79
2023/06/18 07:29:54;;;;;;;8.50;7.63;;;22.50;50.10;;;22.10;40.03;97789.13;5024703;28;20464;-77
2023/06/18 07:32:22;;;;;;;9.03;8.13;;;22.40;49.60;;;22.27;40.40;97789.41;5025312;28;20551;-76
2023/06/18 07:34:49;;;;;;;8.80;8.00;;;22.50;49.90;;;22.33;40.26;97784.66;5026585;28;20464;-79
2023/06/18 07:37:16;;;;;;;7.90;7.30;;;22.60;49.90;;;22.56;39.38;97752.69;5002518;28;20462;-77
2023/06/18 07:39:44;;;;;;;7.80;7.10;;;22.80;49.80;;;23.13;39.19;97775.63;5025748;28;20462;-73
2023/06/18 07:42:12;;;;;;;8.70;7.90;;;23.10;49.90;;;23.47;38.42;97791.81;5030765;28;21073;-75
2023/06/18 07:44:39;;;;;;;8.27;7.47;;;23.50;49.60;;;23.19;37.99;97790.94;5028731;28;20954;-76
2023/06/18 07:47:07;;;;;;;8.00;7.20;;;23.50;48.70;;;23.45;38.00;97784.97;5016403;28;20457;-74
2023/06/18 07:49:34;;;;;;;7.60;6.50;;;23.50;48.80;;;23.71;36.65;97785.25;5034418;28;21331;-74
2023/06/18 07:52:02;;;;;;;7.50;6.80;;;23.80;48.20;;;23.58;36.07;97786.91;5023911;28;20531;-74
2023/06/18 07:54:29;;;;;;;7.07;6.47;;;23.80;47.60;;;23.84;36.07;97782.81;5006397;28;20457;-77
2023/06/18 07:56:56;;;;;;;7.60;7.00;;;23.90;47.40;;;24.36;35.34;97776.97;5025018;28;20490;-78
2023/06/18 07:59:25;;;;;;;7.40;6.70;;;24.30;47.40;;;24.34;35.00;97784.75;5024675;28;20463;-80
2023/06/18 08:01:53;;;;;;;6.60;5.97;;;24.40;46.80;;;24.47;34.92;97772.03;5010449;28;20463;-75
2023/06/18 08:04:20;;;;;;;7.10;6.50;;;24.50;47.10;;;24.53;35.45;97781.81;5007585;28;20561;-77
2023/06/18 08:06:48;;;;;;;7.53;6.73;;;24.60;47.30;;;24.99;34.21;97785.38;5006378;28;20456;-76
2023/06/18 08:09:15;;;;;;;7.77;7.07;;;24.90;47.30;;;24.98;34.57;97782.97;5018823;28;20452;-74
2023/06/18 08:11:43;;;;;;;7.30;6.60;;;25.10;47.00;;;25.09;34.19;97784.28;5023837;28;20473;-76
2023/06/18 08:14:11;;;;;;;8.83;7.50;;;25.20;46.90;;;25.26;33.33;97783.56;5005239;28;20910;-75
2023/06/18 08:16:42;;;;;;;8.50;7.70;;;25.20;46.20;;;25.02;33.81;97783.94;5010182;28;20477;-74
2023/06/18 08:19:10;;;;;;;7.17;6.57;;;25.20;46.00;;;25.11;33.00;97789.50;5008363;28;20496;-78
2023/06/18 08:21:37;;;;;;;7.93;7.23;;;25.20;45.40;;;25.12;33.03;97786.44;5018620;28;20509;-68
2023/06/18 08:24:05;;;;;;;8.40;7.60;;;25.20;45.30;;;25.42;32.53;97788.69;5001372;28;20609;-80
2023/06/18 08:26:32;;;;;;;10.47;9.27;;;25.40;45.60;;;25.62;32.85;97787.31;5031998;28;20465;-79
2023/06/18 08:29:00;;;;;;;7.80;7.07;;;25.60;45.60;;;25.64;32.87;97787.81;5028895;28;20538;-79
2023/06/18 08:31:27;;;;;;;8.43;7.70;;;25.70;45.40;;;25.53;32.37;97781.75;5033230;28;20453;-72
2023/06/18 08:33:56;;;;;;;8.87;7.97;;;25.60;44.90;;;25.66;32.14;97788.28;5028373;28;20462;-81
2023/06/18 08:36:23;;;;;;;8.40;7.60;;;25.70;44.90;;;25.29;31.83;97773.84;5028798;28;20549;-76
2023/06/18 08:38:50;;;;;;;7.60;7.00;;;25.50;44.30;;;25.28;32.29;97777.75;5025614;28;20470;-76
2023/06/18 08:41:18;;;;;;;8.50;7.70;;;25.50;44.70;;;25.35;31.89;97772.56;5025639;28;20485;-80
2023/06/18 08:43:46;;;;;;;7.17;6.47;;;25.50;44.30;;;25.76;32.15;97775.31;5002971;28;20462;-79
2023/06/18 08:46:15;;;;;;;7.47;6.77;;;25.70;44.70;;;25.81;31.85;97780.69;5020069;28;20474;-75
2023/06/18 08:48:46;;;;;;;8.17;7.40;;;25.80;44.50;;;25.98;31.96;97777.16;5018712;28;20457;-77
2023/06/18 08:51:17;;;;;;;8.67;7.80;;;25.90;44.60;;;26.06;31.37;97773.56;5004391;28;20462;-83
2023/06/18 08:53:47;;;;;;;6.90;6.20;;;26.00;44.10;;;26.36;30.70;97757.16;5007955;28;20453;-76
2023/06/18 08:56:16;;;;;;;7.40;6.80;;;26.20;44.00;;;26.21;31.09;97760.41;5026607;28;20486;-81
2023/06/18 08:58:50;;;;;;;7.23;6.40;;;26.30;43.90;;;26.29;30.64;97749.34;5043615;28;20450;-74
2023/06/18 09:01:19;;;;;;;8.40;7.70;;;26.30;43.90;;;25.86;31.51;97752.88;5020485;28;20462;-74
2023/06/18 09:03:47;;;;;;;7.87;7.07;;;26.20;43.80;;;26.12;31.94;97763.16;5033925;28;20478;-78
2023/06/18 09:06:16;;;;;;;8.03;7.23;;;26.10;44.30;;;26.08;30.95;97749.13;5017840;28;20825;-77
2023/06/18 09:08:43;;;;;;;7.67;6.80;;;26.00;43.60;;;26.20;30.59;97751.31;5038911;28;20458;-78
2023/06/18 09:11:10;;;;;;;7.70;7.00;;;26.20;43.60;;;26.22;30.65;97754.56;5008695;28;20739;-80
2023/06/18 09:13:42;;;;;;;7.83;6.60;;;26.20;43.50;;;26.22;31.05;97760.09;5008895;28;20472;-79
2023/06/18 09:16:10;;;;;;;6.20;5.70;;;26.20;43.60;;;26.12;30.75;97761.22;5023864;28;20487;-76
2023/06/18 09:18:38;;;;;;;7.70;7.10;;;26.20;43.30;;;26.34;30.82;97753.91;5026440;28;21292;-80
2023/06/18 09:21:05;;;;;;;6.97;6.27;;;26.30;43.60;;;26.34;30.44;97753.91;5023718;28;20490;-75
2023/06/18 09:23:34;;;;;;;7.07;6.43;;;26.30;43.30;;;26.30;28.57;97753.72;5038118;28;20466;-78
2023/06/18 09:26:03;;;;;;;6.53;5.93;;;26.30;41.60;;;26.49;28.84;97752.59;5035253;28;20786;-78
2023/06/18 09:28:31;;;;;;;7.37;5.70;;;26.40;42.00;;;26.77;29.07;97752.25;5018476;28;20455;-78
2023/06/18 09:31:01;;;;;;;6.43;5.67;;;26.60;42.20;;;26.95;27.98;97752.22;5018394;28;21602;-78
2023/06/18 09:33:30;;;;;;;6.43;5.90;;;26.80;41.30;;;26.79;29.39;97749.94;5035098;28;20819;-78
2023/06/18 09:36:07;;;;;;;6.97;6.27;;;26.80;41.90;;;26.93;29.39;97751.75;5029096;28;20997;-76
2023/06/18 09:38:40;;;;;;;6.77;6.17;;;26.80;42.70;;;27.06;29.36;97750.69;5019510;28;20482;-73
2023/06/18 09:41:12;;;;;;;7.33;6.73;;;27.00;42.60;;;27.20;29.49;97763.53;5034919;28;20462;-79
2023/06/18 09:43:43;;;;;;;6.73;6.00;;;27.10;42.70;;;27.34;28.69;97749.47;5016206;28;20458;-80
2023/06/18 09:46:11;;;;;;;6.63;6.07;;;27.20;42.10;;;27.34;27.57;97747.47;5017001;28;20470;-80
2023/06/18 09:48:41;;;;;;;7.70;6.90;;;27.30;41.30;;;27.39;27.54;97746.50;5035479;28;20470;-78
2023/06/18 09:51:10;;;;;;;7.50;6.80;;;27.40;41.10;;;27.56;27.76;97749.19;5031191;28;20489;-79
2023/06/18 09:53:38;;;;;;;7.57;6.87;;;27.50;41.30;;;27.32;27.37;97760.88;5031290;28;20941;-76
2023/06/18 09:56:14;;;;;;;7.10;6.40;;;27.40;40.40;;;27.29;27.22;97756.00;5029422;28;20606;-74
2023/06/18 09:58:44;;;;;;;6.40;5.87;;;27.40;40.50;;;27.51;26.44;97756.88;5030114;28;20523;-73
2023/06/18 10:01:12;;;;;;;6.30;5.70;;;27.40;40.20;;;27.37;25.93;97755.16;5026572;28;20465;-75
2023/06/18 10:03:40;;;;;;;6.30;5.80;;;27.30;39.70;;;27.54;26.14;97740.41;5026637;28;20450;-74
2023/06/18 10:06:17;;;;;;;7.00;6.40;;;27.40;39.90;;;27.48;26.49;97752.00;5029803;28;20458;-72
2023/06/18 10:08:50;;;;;;;7.03;6.33;;;27.50;39.80;;;27.54;27.25;97747.94;5026249;28;20482;-77
2023/06/18 10:11:19;;;;;;;6.03;5.63;;;27.50;40.40;;;27.54;25.94;97745.16;5024950;28;20462;-77
2023/06/18 10:13:48;;;;;;;6.37;5.77;;;27.60;39.80;;;27.26;26.49;97751.13;5026822;28;20543;-74
2023/06/18 10:16:18;;;;;;;5.97;5.47;;;27.30;39.70;;;27.37;26.06;97746.84;5027568;28;20840;-80
2023/06/18 10:18:56;;;;;;;6.27;5.67;;;27.40;39.40;;;27.67;25.31;97743.28;5005259;28;20451;-79
2023/06/18 10:21:25;;;;;;;6.20;5.63;;;27.50;39.00;;;27.56;24.97;97729.00;5023345;28;20644;-77
2023/06/18 10:23:58;;;;;;;5.93;5.33;;;27.50;38.70;;;27.47;24.79;97751.19;5017401;28;20459;-79